createdAt,value
2023-03-14T00:00:40.984Z,95189.69
2023-03-14T00:04:41.323Z,95194.44
2023-03-14T00:08:46.231Z,95213.75
2023-03-14T00:12:47.050Z,95194.19
2023-03-14T00:16:50.459Z,95207.47
2023-03-14T00:20:50.797Z,95216.03
2023-03-14T00:24:54.507Z,95205.00
2023-03-14T00:28:57.630Z,95227.78
2023-03-14T00:32:58.076Z,95220.41
2023-03-14T00:36:58.488Z,95224.66
2023-03-14T00:41:02.549Z,95224.13
2023-03-14T00:45:02.896Z,95263.28
2023-03-14T00:49:03.122Z,95269.13
2023-03-14T00:53:03.721Z,95275.22
2023-03-14T00:57:06.740Z,95281.31
2023-03-14T01:01:13.593Z,95286.66
2023-03-14T01:05:16.057Z,95300.19
2023-03-14T01:09:18.864Z,95287.22
2023-03-14T01:13:21.718Z,95306.81
2023-03-14T01:17:22.774Z,95271.81
2023-03-14T01:21:27.593Z,95272.03
2023-03-14T01:25:28.136Z,95299.88
2023-03-14T01:29:31.618Z,95320.03
2023-03-14T01:33:32.108Z,95318.97
2023-03-14T01:37:32.851Z,95280.78
2023-03-14T01:41:34.020Z,95250.09
2023-03-14T01:46:22.725Z,95222.56
2023-03-14T01:50:24.118Z,95170.38
2023-03-14T01:54:32.136Z,95190.56
2023-03-14T01:58:36.108Z,95172.28
2023-03-14T02:02:39.668Z,95179.94
2023-03-14T02:06:52.597Z,95203.50
2023-03-14T02:10:56.824Z,95192.34
2023-03-14T02:15:11.575Z,95214.03
2023-03-14T02:20:16.089Z,95209.25
2023-03-14T02:24:31.239Z,95226.78
2023-03-14T02:28:40.206Z,95240.56
2023-03-14T02:32:45.335Z,95243.91
2023-03-14T02:36:48.565Z,95239.22
2023-03-14T02:40:49.318Z,95236.81
2023-03-14T02:45:04.050Z,95233.09
2023-03-14T02:49:10.106Z,95218.75
2023-03-14T02:53:11.087Z,95225.13
2023-03-14T02:57:12.049Z,95221.16
2023-03-14T03:01:15.426Z,95217.09
2023-03-14T03:05:15.814Z,95204.19
2023-03-14T03:09:16.166Z,95195.97
2023-03-14T03:13:16.876Z,95201.03
2023-03-14T03:17:21.910Z,95176.34
2023-03-14T03:21:24.521Z,95176.91
2023-03-14T03:25:24.913Z,95179.84
2023-03-14T03:29:26.125Z,95196.56
2023-03-14T03:33:30.412Z,95170.66
2023-03-14T03:37:30.860Z,95166.84
2023-03-14T03:41:32.935Z,95175.69
2023-03-14T03:45:36.675Z,95163.78
2023-03-14T03:49:42.058Z,95141.47
2023-03-14T03:53:44.940Z,95147.84
2023-03-14T03:57:47.979Z,95153.69
2023-03-14T04:01:49.069Z,95168.50
2023-03-14T04:06:03.370Z,95159.47
2023-03-14T04:10:05.234Z,95163.75
2023-03-14T04:14:13.110Z,95146.50
2023-03-14T04:18:13.569Z,95144.16
2023-03-14T04:22:18.941Z,95133.56
2023-03-14T04:26:22.860Z,95136.94
2023-03-14T04:30:23.657Z,95128.75
2023-03-14T04:34:30.459Z,95120.06
2023-03-14T04:38:34.538Z,95112.41
2023-03-14T04:42:35.265Z,95101.03
2023-03-14T04:46:36.153Z,95104.44
2023-03-14T04:50:39.426Z,95102.63
2023-03-14T04:54:42.736Z,95100.84
2023-03-14T04:58:43.268Z,95096.66
2023-03-14T05:02:44.533Z,95111.53
2023-03-14T05:07:03.839Z,95101.94
2023-03-14T05:11:23.832Z,95118.91
2023-03-14T05:15:44.970Z,95111.75
2023-03-14T05:20:08.698Z,95110.47
2023-03-14T05:24:47.798Z,95109.91
2023-03-14T05:29:09.674Z,95104.00
2023-03-14T05:33:23.885Z,95107.78
2023-03-14T05:37:36.114Z,95104.63
2023-03-14T05:41:52.126Z,95086.72
2023-03-14T05:46:18.508Z,95078.16
2023-03-14T05:50:39.641Z,95070.22
2023-03-14T05:54:46.207Z,95067.91
2023-03-14T05:59:10.993Z,95047.00
2023-03-14T06:03:34.422Z,95062.84
2023-03-14T06:07:34.988Z,95066.75
2023-03-14T06:11:36.364Z,95070.97
2023-03-14T06:15:39.290Z,95064.34
2023-03-14T06:19:42.557Z,95074.31
2023-03-14T06:23:47.007Z,95066.81
2023-03-14T06:27:47.457Z,95070.72
2023-03-14T06:31:49.311Z,95057.94
2023-03-14T06:35:54.808Z,95075.00
2023-03-14T06:39:55.291Z,95070.31
2023-03-14T06:44:14.611Z,95075.31
2023-03-14T06:48:15.009Z,95082.69
2023-03-14T06:52:25.380Z,95079.28
2023-03-14T06:56:25.974Z,95084.72
2023-03-14T07:00:29.426Z,95074.56
2023-03-14T07:04:31.232Z,95076.75
2023-03-14T07:08:37.482Z,95070.19
2023-03-14T07:12:38.140Z,95071.56
2023-03-14T07:16:38.614Z,95072.44
2023-03-14T07:20:41.451Z,95058.81
2023-03-14T07:24:45.211Z,95066.75
2023-03-14T07:28:46.258Z,95077.25
2023-03-14T07:32:50.487Z,95072.75
2023-03-14T07:36:53.693Z,95067.03
2023-03-14T07:41:03.151Z,95075.38
2023-03-14T07:45:05.681Z,95069.19
2023-03-14T07:49:06.154Z,95069.03
2023-03-14T07:53:06.627Z,95080.41
2023-03-14T07:57:11.931Z,95085.72
2023-03-14T08:01:15.752Z,95093.44
2023-03-14T08:05:18.766Z,95094.19
2023-03-14T08:09:19.426Z,95101.22
2023-03-14T08:13:22.634Z,95094.41
2023-03-14T08:17:23.051Z,95087.84
2023-03-14T08:21:24.024Z,95080.19
2023-03-14T08:25:24.849Z,95080.34
2023-03-14T08:29:28.017Z,95076.56
2023-03-14T08:33:29.068Z,95076.47
2023-03-14T08:37:29.437Z,95071.94
2023-03-14T08:41:29.971Z,95081.53
2023-03-14T08:45:33.275Z,95070.03
2023-03-14T08:49:33.634Z,95077.56
2023-03-14T08:53:33.960Z,95070.19
2023-03-14T08:57:34.425Z,95074.94
2023-03-14T09:01:37.837Z,95066.88
2023-03-14T09:05:38.488Z,95079.03
2023-03-14T09:09:38.795Z,95074.28
2023-03-14T09:13:39.490Z,95068.41
2023-03-14T09:17:42.330Z,95062.22
2023-03-14T09:21:42.820Z,95075.00
2023-03-14T09:25:43.149Z,95050.03
2023-03-14T09:29:43.382Z,95066.84
2023-03-14T09:33:46.540Z,95072.63
2023-03-14T09:37:47.361Z,95072.22
2023-03-14T09:41:51.857Z,95089.31
2023-03-14T09:45:59.037Z,95062.97
2023-03-14T09:50:04.501Z,95057.66
2023-03-14T09:54:05.477Z,95061.25
2023-03-14T09:58:14.484Z,95060.88
2023-03-14T10:02:29.122Z,95067.81
2023-03-14T10:06:35.958Z,95063.13
2023-03-14T10:10:37.076Z,95058.25
2023-03-14T10:14:41.054Z,95059.59
2023-03-14T10:18:41.353Z,95060.69
2023-03-14T10:22:45.157Z,95050.00
2023-03-14T10:26:46.545Z,95049.25
2023-03-14T10:30:50.032Z,95062.66
2023-03-14T10:35:12.883Z,95061.53
2023-03-14T10:39:40.117Z,95057.16
2023-03-14T10:43:42.020Z,95043.88
2023-03-14T10:47:54.013Z,95067.50
2023-03-14T10:51:54.853Z,95072.19
2023-03-14T10:56:02.449Z,95070.41
2023-03-14T11:00:09.596Z,95069.06
2023-03-14T11:04:33.690Z,95050.84
2023-03-14T11:08:48.308Z,95037.94
2023-03-14T11:13:14.745Z,95042.88
2023-03-14T11:17:29.037Z,95034.97
2023-03-14T11:21:40.039Z,95029.88
2023-03-14T11:25:52.050Z,95046.13
2023-03-14T11:30:03.062Z,95037.69
2023-03-14T11:34:18.299Z,95020.66
2023-03-14T11:38:32.898Z,95023.09
2023-03-14T11:42:36.517Z,95019.56
2023-03-14T11:46:45.551Z,95016.63
2023-03-14T11:50:51.122Z,95018.41
2023-03-14T11:54:59.246Z,95016.13
2023-03-14T11:59:06.869Z,95020.41
2023-03-14T12:03:23.868Z,95025.31
2023-03-14T12:07:33.151Z,95031.72
2023-03-14T12:11:48.595Z,95035.34
2023-03-14T12:15:58.166Z,95034.78
2023-03-14T12:20:20.464Z,95032.56
2023-03-14T12:24:27.806Z,95051.91
2023-03-14T12:28:35.944Z,95021.81
2023-03-14T12:32:36.593Z,95007.97
2023-03-14T12:37:27.854Z,95002.13
2023-03-14T12:41:41.264Z,94993.00
2023-03-14T12:45:45.118Z,94992.22
2023-03-14T12:49:45.814Z,94985.38
2023-03-14T12:54:40.419Z,94983.31
2023-03-14T12:58:53.447Z,94975.19
2023-03-14T13:02:57.506Z,94986.38
2023-03-14T13:07:03.134Z,94984.41
2023-03-14T13:11:15.161Z,94994.13
2023-03-14T13:15:27.308Z,94978.47
2023-03-14T13:19:32.205Z,94980.19
2023-03-14T13:23:35.946Z,94976.09
2023-03-14T13:27:44.424Z,94970.56
2023-03-14T13:31:49.598Z,94973.03
2023-03-14T13:35:54.589Z,94953.53
2023-03-14T13:39:56.800Z,94954.88
2023-03-14T13:44:09.636Z,94954.41
2023-03-14T13:48:16.135Z,94974.50
2023-03-14T13:52:34.585Z,95021.53
2023-03-14T13:56:40.946Z,95059.91
2023-03-14T14:00:47.845Z,95072.00
2023-03-14T14:04:52.665Z,95056.97
2023-03-14T14:08:55.722Z,95075.53
2023-03-14T14:13:01.677Z,95072.50
2023-03-14T14:17:08.169Z,95083.19
2023-03-14T14:21:10.650Z,95084.19
2023-03-14T14:25:17.725Z,95103.56
2023-03-14T14:29:31.645Z,95092.81
2023-03-14T14:33:44.339Z,95103.47
2023-03-14T14:37:48.042Z,95094.38
2023-03-14T14:41:52.065Z,95099.78
2023-03-14T14:45:56.014Z,95108.31
2023-03-14T14:50:04.198Z,95101.84
2023-03-14T14:54:14.257Z,95108.28
2023-03-14T14:58:28.712Z,95143.22
2023-03-14T15:02:47.236Z,95157.09
2023-03-14T15:06:55.285Z,95174.00
2023-03-14T15:10:56.258Z,95197.91
2023-03-14T15:14:58.461Z,95234.44
2023-03-14T15:19:06.513Z,95232.13
2023-03-14T15:23:21.422Z,95270.22
2023-03-14T15:27:22.761Z,95285.78
2023-03-14T15:31:25.224Z,95318.47
2023-03-14T15:35:25.563Z,95303.00
2023-03-14T15:39:28.651Z,95350.03
2023-03-14T15:43:29.314Z,95350.03
2023-03-14T15:47:29.576Z,95341.50
2023-03-14T15:51:30.380Z,95344.94
2023-03-14T15:55:35.691Z,95359.81
2023-03-14T15:59:38.868Z,95382.91
2023-03-14T16:03:41.757Z,95402.03
2023-03-14T16:07:47.819Z,95416.50
2023-03-14T16:11:50.784Z,95437.94
2023-03-14T16:15:59.277Z,95438.28
2023-03-14T16:20:00.001Z,95459.47
2023-03-14T16:24:00.721Z,95477.09
2023-03-14T16:28:10.857Z,95485.44
2023-03-14T16:32:12.132Z,95544.44
2023-03-14T16:36:15.757Z,95523.97
2023-03-14T16:40:17.363Z,95513.59
2023-03-14T16:44:20.852Z,95527.16
2023-03-14T16:48:23.252Z,95512.81
2023-03-14T16:52:23.489Z,95545.31
2023-03-14T16:56:23.999Z,95549.78
2023-03-14T17:00:27.545Z,95567.94
2023-03-14T17:04:28.061Z,95583.81
2023-03-14T17:08:28.522Z,95581.44
2023-03-14T17:12:28.809Z,95595.47
2023-03-14T17:16:33.054Z,95653.72
2023-03-14T17:20:36.035Z,95625.22
2023-03-14T17:24:37.533Z,95629.34
2023-03-14T17:28:38.182Z,95645.94
2023-03-14T17:32:41.394Z,95655.63
2023-03-14T17:36:41.794Z,95652.91
2023-03-14T17:40:42.056Z,95653.31
2023-03-14T17:44:42.828Z,95664.66
2023-03-14T17:48:47.932Z,95677.06
2023-03-14T17:52:48.586Z,95687.09
2023-03-14T17:56:50.144Z,95705.06
2023-03-14T18:00:51.821Z,95725.19
2023-03-14T18:04:57.597Z,95749.31
2023-03-14T18:09:00.274Z,95759.44
2023-03-14T18:13:02.123Z,95774.34
2023-03-14T18:17:03.920Z,95796.09
2023-03-14T18:21:09.250Z,95792.81
2023-03-14T18:25:14.304Z,95798.69
2023-03-14T18:29:16.706Z,95812.66
2023-03-14T18:33:18.987Z,95794.19
2023-03-14T18:37:25.275Z,95816.22
2023-03-14T18:41:28.982Z,95805.34
2023-03-14T18:45:33.803Z,95841.38
2023-03-14T18:49:36.501Z,95849.47
2023-03-14T18:53:42.679Z,95862.63
2023-03-14T18:57:45.379Z,95879.34
2023-03-14T19:01:52.186Z,95894.91
2023-03-14T19:05:54.103Z,95907.94
2023-03-14T19:09:59.896Z,95921.22
2023-03-14T19:14:01.873Z,95921.00
2023-03-14T19:18:04.435Z,95947.78
2023-03-14T19:22:06.950Z,95958.31
2023-03-14T19:26:16.812Z,95955.09
2023-03-14T19:30:19.183Z,95971.22
2023-03-14T19:34:21.872Z,95955.31
2023-03-14T19:38:24.348Z,95973.41
2023-03-14T19:42:30.555Z,95964.81
2023-03-14T19:46:35.379Z,95980.63
2023-03-14T19:50:38.385Z,95981.19
2023-03-14T19:54:42.798Z,95991.72
2023-03-14T19:58:47.548Z,95998.59
2023-03-14T20:02:49.588Z,96015.63
2023-03-14T20:06:50.505Z,96036.19
2023-03-14T20:10:52.111Z,96038.00
2023-03-14T20:14:56.085Z,96035.09
2023-03-14T20:18:56.704Z,96035.25
2023-03-14T20:22:57.138Z,96054.97
2023-03-14T20:26:58.467Z,96039.00
2023-03-14T20:31:01.952Z,96043.25
2023-03-14T20:35:02.592Z,96048.50
2023-03-14T20:39:03.263Z,96032.47
2023-03-14T20:43:04.363Z,96058.81
2023-03-14T20:47:07.838Z,96059.19
2023-03-14T20:51:09.550Z,96082.25
2023-03-14T20:55:11.532Z,96067.22
2023-03-14T20:59:11.964Z,96076.25
2023-03-14T21:03:15.456Z,96079.75
2023-03-14T21:07:16.893Z,96079.44
2023-03-14T21:11:17.404Z,96073.94
2023-03-14T21:15:22.969Z,96083.28
2023-03-14T21:19:30.819Z,96087.50
2023-03-14T21:23:34.634Z,96069.09
2023-03-14T21:27:37.993Z,96081.66
2023-03-14T21:31:38.357Z,96091.00
2023-03-14T21:35:41.524Z,96089.88
2023-03-14T21:39:42.139Z,96087.38
2023-03-14T21:43:44.433Z,96101.97
2023-03-14T21:47:48.185Z,96106.13
2023-03-14T21:51:52.509Z,96099.75
2023-03-14T21:55:55.690Z,96112.41
2023-03-14T21:59:56.383Z,96129.88
2023-03-14T22:03:56.758Z,96129.00
2023-03-14T22:08:00.012Z,96132.78
2023-03-14T22:12:01.280Z,96135.41
2023-03-14T22:16:01.821Z,96146.34
2023-03-14T22:20:02.468Z,96157.03
2023-03-14T22:24:08.175Z,96160.34
2023-03-14T22:28:08.491Z,96149.53
2023-03-14T22:32:10.906Z,96178.19
2023-03-14T22:36:13.156Z,96183.44
2023-03-14T22:40:17.150Z,96165.94
2023-03-14T22:44:17.459Z,96180.25
2023-03-14T22:48:18.336Z,96179.44
2023-03-14T22:52:19.791Z,96193.19
2023-03-14T22:56:23.117Z,96211.09
2023-03-14T23:00:27.402Z,96223.19
2023-03-14T23:04:30.229Z,96221.16
2023-03-14T23:08:33.765Z,96227.78
2023-03-14T23:12:39.408Z,96221.72
2023-03-14T23:16:44.366Z,96204.84
2023-03-14T23:20:48.642Z,96194.19
2023-03-14T23:24:49.379Z,96207.84
2023-03-14T23:28:54.663Z,96231.19
2023-03-14T23:32:55.031Z,96236.63
2023-03-14T23:36:56.133Z,96234.78
2023-03-14T23:40:56.963Z,96238.22
2023-03-14T23:45:00.196Z,96239.22
2023-03-14T23:49:00.820Z,96252.75
2023-03-14T23:53:01.339Z,96274.09
2023-03-14T23:57:02.571Z,96289.38
